Time;durP1;ratioP1;P1;durP2;ratioP2;P2;SDS_P1;SDS_P2;PMS_P1;PMS_P2;Temp;Humidity;BMP_temperature;BMP_pressure;BME280_temperature;BME280_humidity;BME280_pressure;Samples;Min_cycle;Max_cycle;Signal;HPM_P1;HPM_P2
2022/09/23 00:00:56;;;;;;;3.35;1.20;;;;;;;10.17;71.43;101459.94;2072299;28;20876;-70
2022/09/23 00:02:02;;;;;;;3.72;1.20;;;;;;;10.17;71.62;101459.16;2078489;28;20295;-70
2022/09/23 00:03:06;;;;;;;1.75;1.00;;;;;;;10.15;71.25;101458.56;2071782;28;20780;-69
2022/09/23 00:04:11;;;;;;;1.95;1.15;;;;;;;10.14;71.86;101457.78;2064050;28;20049;-71
2022/09/23 00:05:14;;;;;;;3.13;0.85;;;;;;;10.14;71.39;101465.84;2078816;28;20299;-70
2022/09/23 00:06:22;;;;;;;2.92;1.02;;;;;;;10.13;71.30;101461.53;2079720;28;20279;-70
2022/09/23 00:07:28;;;;;;;2.47;0.90;;;;;;;10.10;71.07;101462.03;2071521;28;20289;-70
2022/09/23 00:08:30;;;;;;;1.42;0.88;;;;;;;10.12;71.59;101459.09;2064146;28;20034;-70
2022/09/23 00:09:32;;;;;;;4.35;0.98;;;;;;;10.13;71.64;101466.09;2071877;28;20045;-69
2022/09/23 00:10:39;;;;;;;1.35;0.80;;;;;;;10.13;71.41;101460.72;2080151;28;20287;-70
2022/09/23 00:11:41;;;;;;;2.55;1.00;;;;;;;10.13;71.26;101461.53;2071559;28;20280;-70
2022/09/23 00:12:48;;;;;;;1.45;0.80;;;;;;;10.15;71.71;101467.47;2063611;28;20297;-70
2022/09/23 00:13:53;;;;;;;2.05;0.85;;;;;;;10.15;71.25;101464.78;2063697;28;20034;-70
2022/09/23 00:15:00;;;;;;;4.10;0.90;;;;;;;10.15;71.33;101461.25;2054913;28;20286;-70
2022/09/23 00:16:27;;;;;;;2.80;0.90;;;;;;;10.15;71.34;101466.63;2042349;28;20048;-69
2022/09/23 00:17:30;;;;;;;2.15;0.68;;;;;;;10.16;71.23;101462.91;2050206;28;20289;-69
2022/09/23 00:18:37;;;;;;;1.13;0.80;;;;;;;10.16;71.32;101460.22;2057018;28;20313;-70
2022/09/23 00:19:47;;;;;;;1.48;0.70;;;;;;;10.15;71.59;101459.41;2055580;28;20293;-70
2022/09/23 00:20:50;;;;;;;1.13;0.73;;;;;;;10.16;71.44;101460.22;2056803;28;20271;-70
2022/09/23 00:21:55;;;;;;;2.13;1.15;;;;;;;10.16;70.80;101460.22;2063667;28;20866;-69
2022/09/23 00:23:00;;;;;;;3.15;0.73;;;;;;;10.16;71.10;101457.53;2056432;28;20282;-70
2022/09/23 00:24:06;;;;;;;1.10;0.65;;;;;;;10.14;70.82;101452.41;2056294;28;20053;-70
2022/09/23 00:25:11;;;;;;;3.25;0.77;;;;;;;10.15;71.22;101463.94;2056067;28;20297;-69
2022/09/23 00:26:20;;;;;;;2.72;1.02;;;;;;;10.13;71.59;101456.16;2066046;28;20273;-70
2022/09/23 00:27:25;;;;;;;2.60;1.10;;;;;;;10.13;71.36;101452.66;2063575;28;20293;-69
2022/09/23 00:28:30;;;;;;;9.15;1.38;;;;;;;10.12;71.24;101448.34;2056437;28;20050;-70
2022/09/23 00:29:32;;;;;;;4.15;1.60;;;;;;;10.11;71.52;101446.72;2055281;28;20294;-69
2022/09/23 00:30:33;;;;;;;3.60;2.35;;;;;;;10.08;71.65;101450.72;2055676;28;20478;-69
2022/09/23 00:31:35;;;;;;;3.40;1.80;;;;;;;10.05;71.91;101451.22;2063565;28;20280;-70
2022/09/23 00:32:42;;;;;;;2.33;1.27;;;;;;;10.04;72.12;101446.13;2063497;28;20358;-70
2022/09/23 00:33:47;;;;;;;3.05;1.25;;;;;;;10.04;71.96;101451.50;2055765;28;20042;-69
2022/09/23 00:34:51;;;;;;;1.50;0.90;;;;;;;10.02;71.76;101453.59;2063838;28;20065;-70
2022/09/23 00:36:21;;;;;;;2.53;1.10;;;;;;;10.02;71.91;101445.56;2063357;28;20674;-70
2022/09/23 00:37:27;;;;;;;2.72;1.20;;;;;;;10.02;71.91;101453.59;2066762;28;20290;-70
2022/09/23 00:38:34;;;;;;;3.53;1.38;;;;;;;10.01;71.25;101443.94;2071685;28;20046;-70
2022/09/23 00:39:51;;;;;;;3.60;1.13;;;;;;;10.00;72.07;101445.81;2068867;28;20307;-69
2022/09/23 00:40:57;;;;;;;1.77;0.95;;;;;;;10.02;71.46;101457.09;2080049;28;20284;-70
2022/09/23 00:42:06;;;;;;;9.18;1.10;;;;;;;10.04;71.09;101456.88;2071441;28;20273;-70
2022/09/23 00:43:14;;;;;;;2.13;1.10;;;;;;;10.04;71.63;101451.50;2070181;28;20728;-70
2022/09/23 00:44:44;;;;;;;1.60;1.08;;;;;;;10.04;71.62;101451.50;2070870;28;20053;-69
2022/09/23 00:45:51;;;;;;;2.55;0.80;;;;;;;10.05;71.29;101455.78;2063065;28;20541;-70
2022/09/23 00:47:01;;;;;;;2.75;1.00;;;;;;;10.05;71.52;101453.09;2063639;28;20285;-70
2022/09/23 00:48:05;;;;;;;1.63;0.70;;;;;;;10.04;71.65;101452.28;2063244;28;20297;-70
2022/09/23 00:49:17;;;;;;;2.97;1.00;;;;;;;10.04;71.46;101452.28;2063589;28;20781;-70
2022/09/23 00:50:33;;;;;;;1.33;0.90;;;;;;;10.04;71.28;101446.91;2055262;28;20298;-70
2022/09/23 00:51:51;;;;;;;0.80;0.73;;;;;;;10.04;71.38;101444.25;2057685;28;20057;-70
2022/09/23 00:52:55;;;;;;;1.92;0.80;;;;;;;10.05;71.45;101447.72;2071303;28;20292;-70
2022/09/23 00:54:08;;;;;;;1.10;0.77;;;;;;;10.05;71.25;101445.03;2070311;28;20281;-69
2022/09/23 00:55:34;;;;;;;2.75;1.00;;;;;;;10.04;71.42;101440.75;2071477;28;20281;-70
2022/09/23 00:56:38;;;;;;;1.58;0.77;;;;;;;10.05;71.79;101439.66;2066511;28;20371;-70
2022/09/23 00:57:42;;;;;;;0.70;0.70;;;;;;;10.05;71.58;101439.66;2063203;28;20669;-71
2022/09/23 00:58:45;;;;;;;1.20;0.90;;;;;;;10.06;71.12;101438.63;2058049;28;20449;-70
2022/09/23 00:59:50;;;;;;;1.55;0.90;;;;;;;10.06;71.21;101441.31;2063220;28;20289;-68
2022/09/23 01:00:53;;;;;;;2.60;1.30;;;;;;;10.06;71.38;101438.63;2055607;28;20302;-69
2022/09/23 01:02:02;;;;;;;2.80;0.52;;;;;;;10.06;70.94;101433.25;2063466;28;20046;-70
2022/09/23 01:03:06;;;;;;;2.75;1.05;;;;;;;10.06;71.32;101430.56;2063192;28;20282;-70
2022/09/23 01:04:10;;;;;;;1.50;0.90;;;;;;;10.04;71.35;101430.81;2062990;28;20509;-70
2022/09/23 01:05:16;;;;;;;2.42;0.80;;;;;;;10.04;71.36;101430.00;2072005;28;20049;-69
2022/09/23 01:06:21;;;;;;;1.27;0.80;;;;;;;10.05;71.64;101427.03;2071149;28;20292;-70
2022/09/23 01:07:25;;;;;;;2.00;0.77;;;;;;;10.05;71.82;101428.91;2062878;28;20050;-69
2022/09/23 01:08:33;;;;;;;5.30;0.80;;;;;;;10.04;71.15;101430.81;2071489;28;20749;-70
2022/09/23 01:09:38;;;;;;;1.52;0.60;;;;;;;10.05;71.92;101431.59;2079428;28;20304;-70
2022/09/23 01:11:17;;;;;;;1.40;0.90;;;;;;;10.02;71.87;101424.84;2071318;28;20307;-70
2022/09/23 01:12:41;;;;;;;1.77;1.10;;;;;;;10.01;71.01;101427.81;2073647;28;20057;-71
2022/09/23 01:14:06;;;;;;;3.45;0.98;;;;;;;9.96;71.22;101433.94;2063023;28;20301;-69
2022/09/23 01:15:28;;;;;;;1.55;0.70;;;;;;;9.95;71.79;101432.31;2058022;28;20831;-69
2022/09/23 01:16:42;;;;;;;1.35;0.82;;;;;;;9.95;71.21;101435.00;2060825;28;20065;-70
2022/09/23 01:18:13;;;;;;;0.70;0.43;;;;;;;9.95;71.01;101438.50;2071003;28;20120;-69
2022/09/23 01:19:57;;;;;;;4.30;1.10;;;;;;;9.96;71.41;101434.78;2071233;28;20296;-69
2022/09/23 01:21:38;;;;;;;0.75;0.60;;;;;;;9.96;71.52;101429.41;2065882;28;20293;-70
2022/09/23 01:23:02;;;;;;;2.58;0.80;;;;;;;9.97;72.10;101435.56;2079035;28;20287;-70
2022/09/23 01:24:04;;;;;;;1.48;0.85;;;;;;;9.96;72.23;101423.19;2068020;28;20304;-70
2022/09/23 01:25:18;;;;;;;2.40;1.00;;;;;;;9.95;71.74;101427.75;2055247;28;20047;-70
2022/09/23 01:26:49;;;;;;;3.50;1.15;;;;;;;9.96;71.61;101428.56;2062985;28;20301;-70
2022/09/23 01:28:13;;;;;;;3.53;0.75;;;;;;;9.94;71.77;101426.13;2071211;28;20609;-70
2022/09/23 01:29:52;;;;;;;1.25;0.75;;;;;;;9.95;71.51;101425.06;2063097;28;20281;-70
2022/09/23 01:30:59;;;;;;;1.40;0.70;;;;;;;9.96;71.72;101423.19;2063283;28;20286;-69
2022/09/23 01:32:39;;;;;;;4.20;0.90;;;;;;;9.94;71.59;101425.34;2063732;28;20038;-69
2022/09/23 01:34:02;;;;;;;3.33;0.77;;;;;;;9.94;71.69;101419.97;2066318;28;20280;-69
2022/09/23 01:35:13;;;;;;;2.33;0.73;;;;;;;9.93;71.56;101424.53;2065533;28;20297;-69
2022/09/23 01:36:37;;;;;;;1.38;0.70;;;;;;;9.92;71.77;101411.34;2064695;28;20289;-70
2022/09/23 01:37:51;;;;;;;1.20;0.70;;;;;;;9.92;71.99;101414.81;2068938;28;20311;-69
2022/09/23 01:39:07;;;;;;;1.35;0.80;;;;;;;9.92;71.55;101417.50;2080953;28;20387;-68
2022/09/23 01:40:24;;;;;;;1.20;0.70;;;;;;;9.90;71.71;101418.84;2072596;28;20288;-69
2022/09/23 01:42:01;;;;;;;1.67;0.68;;;;;;;9.88;71.95;101420.97;2067086;28;20289;-69
2022/09/23 01:43:09;;;;;;;1.55;0.68;;;;;;;9.88;71.97;101421.78;2061359;28;20312;-70
2022/09/23 01:44:55;;;;;;;4.07;0.80;;;;;;;9.87;71.84;101413.97;2064602;28;20289;-70
2022/09/23 01:46:08;;;;;;;0.60;0.50;;;;;;;9.86;71.69;101413.16;2055813;28;20290;-71
2022/09/23 01:47:15;;;;;;;1.25;0.60;;;;;;;9.83;72.15;101415.53;2055961;28;20298;-69
2022/09/23 01:49:01;;;;;;;0.90;0.50;;;;;;;9.87;71.46;101416.66;2056494;28;20776;-70
2022/09/23 01:50:54;;;;;;;1.05;0.65;;;;;;;9.90;71.89;101418.84;2042191;28;20050;-70
2022/09/23 01:51:47;;;;;;;0.77;0.50;;;;;;;9.92;71.86;101417.50;2055311;28;20281;-71
2022/09/23 01:53:02;;;;;;;3.90;0.50;;;;;;;9.94;71.75;101419.97;2064699;28;20289;-70
2022/09/23 01:54:14;;;;;;;0.98;0.60;;;;;;;9.93;72.37;101413.78;2064560;28;20665;-71
2022/09/23 01:55:29;;;;;;;1.55;0.55;;;;;;;9.95;71.92;101421.56;2064927;28;20288;-71
2022/09/23 01:56:46;;;;;;;0.63;0.35;;;;;;;9.97;72.08;101420.25;2064525;28;20395;-69
2022/09/23 01:58:03;;;;;;;0.63;0.50;;;;;;;9.98;72.23;101419.19;2065639;28;20301;-69
2022/09/23 01:59:17;;;;;;;1.35;0.50;;;;;;;10.00;71.99;101418.16;2069679;28;20737;-70
2022/09/23 02:00:26;;;;;;;0.70;0.50;;;;;;;10.00;72.10;101424.31;2052493;28;20297;-70
2022/09/23 02:01:49;;;;;;;2.08;0.50;;;;;;;10.00;71.34;101412.78;2051060;28;20913;-70
2022/09/23 02:03:14;;;;;;;0.68;0.65;;;;;;;10.00;71.50;101423.50;2076095;28;20671;-70
2022/09/23 02:04:44;;;;;;;1.65;0.55;;;;;;;10.01;71.50;101419.75;2069468;28;20046;-69
2022/09/23 02:05:57;;;;;;;1.98;0.40;;;;;;;10.02;71.62;101418.69;2073058;28;20292;-70
2022/09/23 02:07:16;;;;;;;0.68;0.52;;;;;;;10.01;71.65;101415.19;2072530;28;20305;-70
2022/09/23 02:08:28;;;;;;;2.60;0.70;;;;;;;10.01;72.01;101414.38;2075202;28;20292;-70
2022/09/23 02:09:41;;;;;;;1.02;0.50;;;;;;;9.97;71.86;101412.19;2080480;28;20770;-70
2022/09/23 02:10:55;;;;;;;2.50;0.50;;;;;;;9.94;71.97;101410.03;2080849;28;20667;-70
2022/09/23 02:12:04;;;;;;;1.85;0.30;;;;;;;9.94;72.31;101412.72;2072414;28;20296;-70
2022/09/23 02:13:28;;;;;;;0.80;0.57;;;;;;;9.95;71.81;101411.63;2065775;28;20300;-69
2022/09/23 02:14:40;;;;;;;0.63;0.50;;;;;;;9.97;72.33;101403.34;2077512;28;20288;-70
2022/09/23 02:16:07;;;;;;;1.00;0.60;;;;;;;9.96;72.30;101413.28;2073801;28;20676;-70
2022/09/23 02:17:18;;;;;;;1.25;0.50;;;;;;;9.95;72.34;101402.75;2080606;28;20668;-70
2022/09/23 02:18:27;;;;;;;4.75;0.70;;;;;;;9.95;72.37;101406.25;2079708;28;20044;-71
2022/09/23 02:20:00;;;;;;;1.45;0.90;;;;;;;9.94;72.54;101404.66;2073274;28;20042;-69
2022/09/23 02:21:07;;;;;;;3.65;1.02;;;;;;;9.91;72.50;101409.72;2072476;28;20775;-70
2022/09/23 02:22:34;;;;;;;1.77;1.05;;;;;;;9.87;72.44;101406.72;2065214;28;20292;-70
2022/09/23 02:23:49;;;;;;;1.58;0.95;;;;;;;9.86;72.29;101407.78;2060287;28;20290;-70
2022/09/23 02:25:11;;;;;;;1.98;1.10;;;;;;;9.85;72.43;101411.53;2057498;28;20759;-70
2022/09/23 02:26:19;;;;;;;2.88;1.10;;;;;;;9.83;72.22;101402.91;2062901;28;21006;-70
2022/09/23 02:27:39;;;;;;;7.15;1.35;;;;;;;9.84;72.12;101404.53;2073503;28;20860;-70
2022/09/23 02:29:12;;;;;;;2.50;1.08;;;;;;;9.85;72.86;101399.97;2072244;28;20301;-70
2022/09/23 02:30:20;;;;;;;2.97;1.15;;;;;;;9.81;72.26;101394.31;2068102;28;20288;-70
2022/09/23 02:31:39;;;;;;;2.78;1.00;;;;;;;9.81;72.15;101399.69;2065409;28;20425;-70
2022/09/23 02:32:46;;;;;;;2.85;1.10;;;;;;;9.80;72.27;101400.72;2072313;28;20772;-69
2022/09/23 02:34:01;;;;;;;1.27;0.75;;;;;;;9.81;72.46;101405.06;2064213;28;20293;-69
2022/09/23 02:35:17;;;;;;;4.38;0.90;;;;;;;9.80;72.18;101395.34;2068389;28;20297;-69
2022/09/23 02:36:28;;;;;;;5.70;1.33;;;;;;;9.77;72.13;101387.81;2078863;28;20299;-69
2022/09/23 02:37:37;;;;;;;4.70;1.10;;;;;;;9.77;72.46;101395.84;2083237;28;20361;-70
2022/09/23 02:38:53;;;;;;;1.73;0.88;;;;;;;9.77;72.61;101400.41;2070845;28;20292;-70
2022/09/23 02:40:14;;;;;;;1.52;0.98;;;;;;;9.78;72.46;101394.81;2064304;28;20297;-71
2022/09/23 02:41:36;;;;;;;1.50;0.80;;;;;;;9.77;72.20;101398.53;2066189;28;20042;-71
2022/09/23 02:42:54;;;;;;;1.17;0.95;;;;;;;9.76;72.15;101388.88;2064269;28;20289;-70
2022/09/23 02:44:07;;;;;;;4.35;0.90;;;;;;;9.76;72.73;101391.56;2065276;28;20772;-69
2022/09/23 02:45:12;;;;;;;1.73;0.88;;;;;;;9.77;72.21;101392.38;2070277;28;20287;-70
2022/09/23 02:46:36;;;;;;;1.65;0.90;;;;;;;9.77;72.36;101393.16;2063297;28;20673;-70
2022/09/23 02:47:44;;;;;;;1.77;0.73;;;;;;;9.79;72.56;101401.81;2059393;28;20285;-69
2022/09/23 02:48:55;;;;;;;1.65;0.80;;;;;;;9.80;72.63;101402.59;2064562;28;20290;-70
2022/09/23 02:50:00;;;;;;;1.23;0.70;;;;;;;9.79;72.54;101401.81;2064362;28;20300;-70
2022/09/23 02:51:06;;;;;;;0.88;0.70;;;;;;;9.79;72.15;101398.31;2064543;28;20026;-70
2022/09/23 02:52:12;;;;;;;4.18;0.70;;;;;;;9.81;72.22;101396.19;2071226;28;20617;-70
2022/09/23 02:53:17;;;;;;;2.60;0.82;;;;;;;9.80;72.47;101392.66;2064094;28;20289;-70
2022/09/23 02:54:22;;;;;;;1.60;0.77;;;;;;;9.80;72.67;101389.97;2056442;28;20294;-70
2022/09/23 02:55:34;;;;;;;2.80;0.80;;;;;;;9.80;72.54;101389.19;2064861;28;20292;-70
2022/09/23 02:56:36;;;;;;;1.48;0.70;;;;;;;9.80;71.93;101389.97;2069375;28;20304;-69
2022/09/23 02:57:41;;;;;;;1.73;1.10;;;;;;;9.80;72.21;101392.66;2072061;28;20307;-69
2022/09/23 02:58:45;;;;;;;1.60;0.75;;;;;;;9.81;72.88;101386.25;2072109;28;20288;-70
2022/09/23 02:59:49;;;;;;;1.52;0.82;;;;;;;9.82;72.71;101382.50;2071866;28;20268;-69
2022/09/23 03:01:06;;;;;;;2.35;0.80;;;;;;;9.79;72.65;101380.31;2072179;28;20308;-69
2022/09/23 03:02:25;;;;;;;2.25;0.80;;;;;;;9.79;72.42;101388.38;2066515;28;20304;-69
2022/09/23 03:03:58;;;;;;;1.48;0.90;;;;;;;9.79;72.21;101382.19;2066611;28;20288;-70
2022/09/23 03:05:22;;;;;;;;;;;;;;;9.77;73.05;101382.44;2068314;28;20801;-70
2022/09/23 03:06:31;;;;;;;1.15;0.70;;;;;;;9.75;72.62;101379.22;2072144;28;19928;-69
2022/09/23 03:07:42;;;;;;;2.25;0.90;;;;;;;9.74;72.32;101380.25;2071994;28;20285;-70
2022/09/23 03:08:53;;;;;;;4.05;1.10;;;;;;;9.73;72.32;101375.94;2071996;28;20084;-70
2022/09/23 03:10:16;;;;;;;1.00;0.70;;;;;;;9.72;72.72;101372.47;2064100;28;20293;-71
2022/09/23 03:11:24;;;;;;;1.13;0.73;;;;;;;9.72;72.97;101368.97;2062422;28;20375;-70
2022/09/23 03:13:00;;;;;;;1.10;0.70;;;;;;;9.70;72.75;101368.41;2072158;28;20273;-69
2022/09/23 03:14:21;;;;;;;1.77;0.90;;;;;;;9.70;72.78;101368.41;2072709;28;20288;-70
2022/09/23 03:15:44;;;;;;;1.05;0.60;;;;;;;9.69;72.59;101362.22;2080270;28;20284;-71
2022/09/23 03:17:05;;;;;;;3.88;0.70;;;;;;;9.68;72.25;101367.84;2076861;28;20276;-70
2022/09/23 03:18:19;;;;;;;1.13;0.73;;;;;;;9.69;72.54;101369.47;2072185;28;20284;-70
2022/09/23 03:19:22;;;;;;;2.55;0.88;;;;;;;9.70;72.90;101371.09;2055597;28;20286;-69
2022/09/23 03:20:38;;;;;;;0.77;0.70;;;;;;;9.69;72.45;101364.09;2064200;28;20677;-70
2022/09/23 03:21:52;;;;;;;2.10;0.88;;;;;;;9.69;72.85;101362.22;2064174;28;20718;-71
2022/09/23 03:23:02;;;;;;;1.38;0.68;;;;;;;9.69;72.58;101356.84;2065728;28;20297;-71
2022/09/23 03:24:08;;;;;;;1.45;0.63;;;;;;;9.69;72.49;101358.72;2055993;28;20301;-71
2022/09/23 03:25:14;;;;;;;2.38;0.90;;;;;;;9.67;72.97;101361.66;2056674;28;20706;-70
2022/09/23 03:26:26;;;;;;;0.75;0.60;;;;;;;9.68;73.12;101362.50;2072063;28;20303;-70
2022/09/23 03:27:30;;;;;;;1.10;0.80;;;;;;;9.66;73.13;101360.03;2072068;28;20709;-70
2022/09/23 03:28:42;;;;;;;1.50;0.80;;;;;;;9.64;73.24;101364.03;2063887;28;20297;-70
2022/09/23 03:29:53;;;;;;;1.85;0.90;;;;;;;9.66;73.11;101362.72;2058545;28;20401;-71
2022/09/23 03:30:59;;;;;;;2.65;0.90;;;;;;;9.67;73.49;101363.53;2073414;28;20295;-70
2022/09/23 03:32:06;;;;;;;1.65;0.65;;;;;;;9.68;73.61;101367.84;2072197;28;20280;-70
2022/09/23 03:33:12;;;;;;;1.67;1.00;;;;;;;9.68;73.15;101351.75;2056624;28;20285;-71
2022/09/23 03:34:26;;;;;;;0.93;0.60;;;;;;;9.69;73.63;101359.53;2049043;28;20302;-71
2022/09/23 03:35:33;;;;;;;2.17;0.70;;;;;;;9.68;73.24;101357.94;2057503;28;20290;-71
2022/09/23 03:37:02;;;;;;;2.80;0.80;;;;;;;9.69;73.71;101358.72;2063863;28;20297;-71
2022/09/23 03:38:16;;;;;;;0.70;0.57;;;;;;;9.69;73.80;101353.34;2070894;28;20381;-70
2022/09/23 03:39:26;;;;;;;0.98;0.65;;;;;;;9.71;73.95;101351.25;2073690;28;20618;-70
2022/09/23 03:40:34;;;;;;;2.58;0.68;;;;;;;9.73;74.16;101351.78;2071920;28;20288;-70
2022/09/23 03:41:49;;;;;;;2.35;0.52;;;;;;;9.73;73.84;101351.78;2064838;28;20289;-71
2022/09/23 03:42:54;;;;;;;1.35;0.60;;;;;;;9.69;74.10;101351.47;2057640;28;20282;-70
2022/09/23 03:43:59;;;;;;;1.48;0.65;;;;;;;9.70;73.87;101349.59;2057130;28;20631;-71
2022/09/23 03:45:12;;;;;;;1.15;0.50;;;;;;;9.72;74.13;101352.84;2056428;28;20274;-71
2022/09/23 03:46:19;;;;;;;2.35;0.52;;;;;;;9.70;74.07;101358.47;2066556;28;20298;-70
2022/09/23 03:47:26;;;;;;;2.72;0.70;;;;;;;9.71;74.37;101353.94;2079249;28;20291;-71
2022/09/23 03:48:28;;;;;;;4.55;0.60;;;;;;;9.70;74.74;101354.97;2079898;28;20280;-71
2022/09/23 03:49:36;;;;;;;2.17;0.60;;;;;;;9.71;74.35;101343.19;2058664;28;20646;-71
2022/09/23 03:50:43;;;;;;;0.93;0.50;;;;;;;9.74;74.47;101350.72;2049891;28;20354;-69
2022/09/23 03:51:44;;;;;;;1.67;0.52;;;;;;;9.73;74.50;101349.91;2063765;28;20315;-71
2022/09/23 03:52:49;;;;;;;1.67;0.70;;;;;;;9.73;74.83;101346.41;2071658;28;20291;-70
2022/09/23 03:53:55;;;;;;;0.60;0.60;;;;;;;9.73;74.83;101346.41;2071832;28;20361;-70
2022/09/23 03:54:57;;;;;;;1.92;0.68;;;;;;;9.74;74.89;101345.34;2063857;28;20301;-70
2022/09/23 03:56:03;;;;;;;0.88;0.60;;;;;;;9.72;74.39;101342.13;2065944;28;20300;-70
2022/09/23 03:57:07;;;;;;;4.05;0.63;;;;;;;9.75;74.50;101346.97;2063546;28;20286;-70
2022/09/23 03:58:16;;;;;;;1.65;0.60;;;;;;;9.73;74.57;101349.91;2063942;28;20386;-69
2022/09/23 03:59:21;;;;;;;2.63;1.23;;;;;;;9.73;74.60;101338.34;2073111;28;20288;-70
2022/09/23 04:00:23;;;;;;;3.25;1.90;;;;;;;9.72;74.55;101337.53;2067711;28;20296;-69
2022/09/23 04:01:26;;;;;;;5.30;1.45;;;;;;;9.72;74.76;101345.59;2063850;28;20611;-69
2022/09/23 04:02:33;;;;;;;2.92;1.70;;;;;;;9.71;74.66;101340.50;2072113;28;20297;-70
2022/09/23 04:03:35;;;;;;;1.10;0.90;;;;;;;9.72;74.99;101340.22;2079939;28;20287;-70
2022/09/23 04:04:44;;;;;;;1.30;0.75;;;;;;;9.73;74.74;101338.34;2078657;28;20280;-70
2022/09/23 04:05:51;;;;;;;1.15;0.80;;;;;;;9.71;75.11;101340.50;2063428;28;20301;-69
2022/09/23 04:06:54;;;;;;;0.95;0.60;;;;;;;9.71;74.85;101337.81;2057066;28;20316;-70
2022/09/23 04:07:56;;;;;;;1.23;0.80;;;;;;;9.70;74.82;101336.19;2055668;28;20389;-70
2022/09/23 04:09:00;;;;;;;0.60;0.50;;;;;;;9.70;75.09;101333.50;2055581;28;20301;-70
2022/09/23 04:10:06;;;;;;;1.25;0.80;;;;;;;9.70;75.03;101333.50;2063990;28;20285;-69
2022/09/23 04:11:09;;;;;;;1.77;0.90;;;;;;;9.68;75.35;101336.44;2074058;28;20287;-70
2022/09/23 04:12:17;;;;;;;1.08;0.63;;;;;;;9.68;75.07;101335.63;2072258;28;20641;-70
2022/09/23 04:13:21;;;;;;;4.20;0.85;;;;;;;9.66;75.13;101333.19;2072121;28;20289;-71
2022/09/23 04:14:27;;;;;;;3.47;0.82;;;;;;;9.67;75.12;101337.47;2071666;28;20285;-69
2022/09/23 04:15:32;;;;;;;1.95;0.90;;;;;;;9.68;75.54;101330.28;2064180;28;20293;-70
2022/09/23 04:16:40;;;;;;;1.63;0.80;;;;;;;9.67;75.32;101331.31;2071419;28;20360;-70
2022/09/23 04:17:47;;;;;;;3.05;1.00;;;;;;;9.66;75.48;101335.06;2063300;28;20293;-70
2022/09/23 04:18:54;;;;;;;2.15;0.90;;;;;;;9.68;75.54;101335.63;2064479;28;20290;-70
2022/09/23 04:19:57;;;;;;;2.33;0.80;;;;;;;9.67;75.26;101323.25;2063626;28;20813;-70
2022/09/23 04:20:59;;;;;;;2.75;0.90;;;;;;;9.66;75.42;101330.50;2063474;28;20776;-71
2022/09/23 04:22:01;;;;;;;0.90;0.60;;;;;;;9.66;75.52;101327.00;2063460;28;20772;-70
2022/09/23 04:23:09;;;;;;;2.00;0.88;;;;;;;9.65;75.40;101328.91;2071483;28;20280;-71
2022/09/23 04:24:15;;;;;;;1.48;0.80;;;;;;;9.67;75.16;101334.00;2071072;28;20826;-71
2022/09/23 04:25:23;;;;;;;0.95;0.85;;;;;;;9.67;75.46;101329.44;2063395;28;20289;-70
2022/09/23 04:26:33;;;;;;;1.30;0.70;;;;;;;9.69;75.67;101329.19;2069454;28;20288;-69
2022/09/23 04:27:38;;;;;;;1.02;0.73;;;;;;;9.69;75.56;101329.19;2056492;28;20286;-69
2022/09/23 04:28:43;;;;;;;1.25;0.60;;;;;;;9.70;75.52;101328.13;2063864;28;20292;-70
2022/09/23 04:29:50;;;;;;;2.28;1.30;;;;;;;9.70;75.62;101331.59;2063883;28;20677;-69
2022/09/23 04:30:58;;;;;;;2.90;0.80;;;;;;;9.71;75.42;101324.38;2072630;28;20042;-69
2022/09/23 04:32:06;;;;;;;2.75;0.95;;;;;;;9.73;75.17;101327.63;2077549;28;20276;-69
2022/09/23 04:33:10;;;;;;;1.10;0.68;;;;;;;9.74;75.57;101323.84;2071459;28;20284;-69
2022/09/23 04:34:16;;;;;;;2.58;0.75;;;;;;;9.74;75.51;101324.69;2063165;28;20293;-69
2022/09/23 04:35:23;;;;;;;1.08;0.85;;;;;;;9.74;75.49;101323.84;2070796;28;20277;-69
2022/09/23 04:36:28;;;;;;;3.03;1.00;;;;;;;9.75;75.90;101320.13;2054677;28;20293;-69
2022/09/23 04:37:29;;;;;;;2.30;0.98;;;;;;;9.75;75.13;101330.88;2055218;28;20278;-69
2022/09/23 04:38:33;;;;;;;2.15;0.90;;;;;;;9.76;75.67;101327.09;2062176;28;20308;-70
2022/09/23 04:39:37;;;;;;;2.58;0.93;;;;;;;9.77;75.12;101323.34;2062406;28;20281;-70
2022/09/23 04:40:42;;;;;;;2.05;0.80;;;;;;;9.78;75.75;101319.63;2062656;28;20285;-70
2022/09/23 04:41:47;;;;;;;2.53;0.80;;;;;;;9.78;75.98;101319.63;2063135;28;20296;-70
2022/09/23 04:42:49;;;;;;;1.90;0.90;;;;;;;9.79;75.71;101323.91;2070618;28;20301;-70
2022/09/23 04:43:51;;;;;;;1.95;1.00;;;;;;;9.78;75.41;101322.31;2062732;28;20293;-70
2022/09/23 04:44:56;;;;;;;3.17;1.38;;;;;;;9.80;75.75;101324.72;2062492;28;20294;-70
2022/09/23 04:46:18;;;;;;;1.88;1.10;;;;;;;9.81;76.01;101321.78;2062636;28;20296;-70
2022/09/23 04:47:20;;;;;;;2.38;1.02;;;;;;;9.81;75.65;101321.78;2057237;28;20301;-70
2022/09/23 04:48:26;;;;;;;2.33;1.10;;;;;;;9.82;75.82;101315.34;2062470;28;20277;-71
2022/09/23 04:49:31;;;;;;;3.85;1.05;;;;;;;9.84;75.62;101317.78;2066073;28;20285;-70
2022/09/23 04:50:36;;;;;;;2.25;1.10;;;;;;;9.84;75.80;101315.91;2063915;28;20038;-70
2022/09/23 04:51:42;;;;;;;4.15;1.02;;;;;;;9.86;75.45;101321.00;2063427;28;20285;-70
2022/09/23 04:52:46;;;;;;;1.50;0.70;;;;;;;9.87;75.57;101318.09;2067987;28;20284;-71
2022/09/23 04:53:51;;;;;;;2.33;1.00;;;;;;;9.88;75.58;101319.69;2070233;28;21087;-70
2022/09/23 04:54:53;;;;;;;2.28;1.00;;;;;;;9.89;75.73;101318.63;2070423;28;20296;-70
2022/09/23 04:56:04;;;;;;;2.53;1.08;;;;;;;9.91;75.13;101319.19;2080427;28;20268;-70
2022/09/23 04:57:09;;;;;;;1.08;0.73;;;;;;;9.92;75.82;101323.50;2078299;28;20636;-69
2022/09/23 04:58:12;;;;;;;1.80;0.82;;;;;;;9.91;75.38;101321.06;2070550;28;20904;-71
2022/09/23 04:59:16;;;;;;;1.40;0.80;;;;;;;9.91;75.42;101324.56;2071351;28;20272;-70
2022/09/23 05:00:22;;;;;;;4.65;0.90;;;;;;;9.94;75.47;101324.06;2078273;28;20735;-70
2022/09/23 05:01:33;;;;;;;1.33;0.77;;;;;;;9.96;75.24;101319.25;2077084;28;20280;-70
2022/09/23 05:02:40;;;;;;;2.78;1.08;;;;;;;9.98;75.52;101327.84;2070300;28;20289;-70
2022/09/23 05:03:47;;;;;;;1.65;0.90;;;;;;;10.01;75.51;101323.03;2055049;28;20317;-70
2022/09/23 05:04:52;;;;;;;2.58;1.00;;;;;;;10.00;75.14;101327.59;2063239;28;20347;-69
2022/09/23 05:05:58;;;;;;;4.22;1.10;;;;;;;10.03;75.07;101324.41;2069886;28;20788;-69
2022/09/23 05:07:10;;;;;;;2.40;1.13;;;;;;;10.05;75.13;101326.81;2069943;28;20418;-70
2022/09/23 05:08:13;;;;;;;2.42;1.30;;;;;;;10.08;75.55;101318.25;2061936;28;20053;-74
2022/09/23 05:09:18;;;;;;;9.10;1.10;;;;;;;10.11;75.40;101320.44;2061569;28;20422;-73
2022/09/23 05:10:22;;;;;;;1.67;1.08;;;;;;;10.28;75.33;101318.47;2070033;28;20296;-73
2022/09/23 05:11:25;;;;;;;1.33;0.90;;;;;;;10.62;74.37;101315.44;2066096;28;20808;-73
2022/09/23 05:12:35;;;;;;;2.60;0.82;;;;;;;10.92;73.90;101317.50;2061897;28;20050;-73
2022/09/23 05:13:40;;;;;;;2.20;1.13;;;;;;;11.18;73.50;101313.00;2069993;28;20288;-73
2022/09/23 05:14:42;;;;;;;1.98;1.10;;;;;;;11.39;73.16;101316.59;2053953;28;20297;-73
2022/09/23 05:15:44;;;;;;;5.18;1.05;;;;;;;11.56;72.63;101316.34;2054007;28;20282;-73
2022/09/23 05:16:50;;;;;;;2.97;1.17;;;;;;;11.73;72.24;101310.75;2062788;28;20038;-73
2022/09/23 05:17:55;;;;;;;4.57;0.90;;;;;;;11.88;72.09;101312.66;2061762;28;20122;-73
2022/09/23 05:18:58;;;;;;;2.47;1.10;;;;;;;11.93;71.99;101316.16;2054380;28;20889;-74
2022/09/23 05:20:00;;;;;;;1.70;1.25;;;;;;;11.90;71.74;101313.22;2054146;28;20034;-72
2022/09/23 05:21:10;;;;;;;1.85;0.95;;;;;;;11.91;71.43;101312.91;2054566;28;20766;-73
2022/09/23 05:22:15;;;;;;;3.08;1.10;;;;;;;12.03;71.07;101316.16;2054595;28;20042;-73
2022/09/23 05:23:23;;;;;;;;;;;;;;;12.22;70.53;101312.94;2055554;28;20042;-73
2022/09/23 05:24:28;;;;;;;2.70;1.00;;;;;;;12.42;70.09;101314.78;2054717;28;19918;-72
2022/09/23 05:25:36;;;;;;;2.55;1.10;;;;;;;12.61;69.75;101310.47;2054251;28;20065;-73
2022/09/23 05:26:42;;;;;;;4.65;1.15;;;;;;;12.78;69.21;101309.31;2069787;28;20041;-75
2022/09/23 05:27:47;;;;;;;1.25;1.05;;;;;;;12.90;68.80;101313.34;2070076;28;20288;-75
2022/09/23 05:28:50;;;;;;;2.45;0.90;;;;;;;13.05;68.43;101307.06;2069957;28;20140;-73
2022/09/23 05:29:52;;;;;;;1.95;0.90;;;;;;;13.19;68.08;101302.69;2062109;28;20042;-73
2022/09/23 05:31:01;;;;;;;1.75;1.02;;;;;;;13.36;67.59;101310.44;2061667;28;20042;-76
2022/09/23 05:32:10;;;;;;;1.88;1.00;;;;;;;13.53;67.14;101303.88;2062009;28;20453;-72